Time;durP1;ratioP1;P1;durP2;ratioP2;P2;SDS_P1;SDS_P2;PMS_P1;PMS_P2;Temp;Humidity;BMP_temperature;BMP_pressure;BME280_temperature;BME280_humidity;BME280_pressure;Samples;Min_cycle;Max_cycle;Signal;HPM_P1;HPM_P2
2021/12/24 00:01:15;;;;;;;8.40;5.73;;;9.40;99.90;;;;;;5057664;28;20435;-69
2021/12/24 00:03:42;;;;;;;8.87;6.07;;;9.30;99.90;;;;;;5051981;28;20480;-68
2021/12/24 00:06:11;;;;;;;6.57;5.25;;;9.30;99.90;;;;;;5045170;28;20452;-66
2021/12/24 00:08:39;;;;;;;5.80;4.22;;;9.20;99.90;;;;;;5043873;28;20198;-68
2021/12/24 00:11:08;;;;;;;10.70;6.87;;;9.20;99.90;;;;;;5054502;28;20213;-67
2021/12/24 00:13:41;;;;;;;11.83;5.67;;;9.10;99.90;;;;;;5057251;28;20452;-67
2021/12/24 00:16:16;;;;;;;11.37;7.20;;;9.10;99.90;;;;;;5058181;28;20538;-67
2021/12/24 00:18:47;;;;;;;7.50;5.10;;;9.10;99.90;;;;;;5065944;28;20455;-67
2021/12/24 00:35:11;;;;;;;7.10;4.78;;;9.10;99.90;;;;;;5065181;28;20629;-67
2021/12/24 00:37:40;;;;;;;4.20;3.80;;;9.10;99.90;;;;;;5066682;28;20253;-67
2021/12/24 00:40:14;;;;;;;4.33;3.70;;;9.20;99.90;;;;;;5061562;28;20267;-67
2021/12/24 00:42:44;;;;;;;9.73;5.63;;;9.20;99.90;;;;;;5055909;28;20479;-67
2021/12/24 00:45:12;;;;;;;4.40;3.97;;;9.20;99.90;;;;;;5067580;28;20564;-67
2021/12/24 00:47:39;;;;;;;5.20;4.53;;;9.30;99.90;;;;;;5067170;28;20485;-67
2021/12/24 00:50:11;;;;;;;4.00;3.70;;;9.30;99.90;;;;;;5070254;28;20543;-69
2021/12/24 00:52:48;;;;;;;9.50;4.63;;;9.30;99.90;;;;;;5077700;28;20452;-68
2021/12/24 00:55:15;;;;;;;3.20;2.90;;;9.20;99.90;;;;;;5062116;28;20228;-67
2021/12/24 00:57:44;;;;;;;6.60;4.73;;;9.30;99.90;;;;;;5071715;28;20497;-67
2021/12/24 01:00:14;;;;;;;4.90;3.30;;;9.30;99.90;;;;;;5069379;28;20438;-67
2021/12/24 01:02:41;;;;;;;5.40;3.73;;;9.30;99.90;;;;;;5057859;28;20494;-67
2021/12/24 01:05:09;;;;;;;5.30;4.33;;;9.30;99.90;;;;;;5053598;28;20553;-68
2021/12/24 01:07:36;;;;;;;7.43;6.23;;;9.20;99.90;;;;;;5066909;28;20467;-67
2021/12/24 01:10:05;;;;;;;4.90;4.07;;;9.30;99.90;;;;;;5055296;28;20906;-67
2021/12/24 01:12:33;;;;;;;7.40;4.40;;;9.30;99.90;;;;;;5067739;28;20760;-67
2021/12/24 01:14:59;;;;;;;3.58;3.15;;;9.20;99.90;;;;;;5061435;28;20471;-67
2021/12/24 01:17:36;;;;;;;8.17;5.73;;;9.20;99.90;;;;;;5070620;28;20228;-68
2021/12/24 01:20:12;;;;;;;5.45;4.20;;;9.20;99.90;;;;;;5061285;28;20459;-67
2021/12/24 01:25:35;;;;;;;6.53;4.70;;;9.20;99.90;;;;;;5063646;28;20917;-67
2021/12/24 01:28:29;;;;;;;7.10;4.20;;;9.20;99.90;;;;;;5070043;28;20546;-67
2021/12/24 01:39:15;;;;;;;4.70;4.30;;;9.20;99.90;;;;;;5061822;28;20962;-67
2021/12/24 01:44:28;;;;;;;4.47;4.07;;;9.20;99.90;;;;;;5052721;28;20482;-67
2021/12/24 01:46:57;;;;;;;4.50;4.10;;;9.20;99.90;;;;;;5055434;28;20568;-67
2021/12/24 01:49:24;;;;;;;4.33;3.93;;;9.20;99.90;;;;;;5068496;28;20197;-67
2021/12/24 01:51:51;;;;;;;5.90;3.57;;;9.20;99.90;;;;;;5067493;28;21153;-67
2021/12/24 01:54:18;;;;;;;5.83;3.80;;;9.20;99.90;;;;;;5052156;28;20472;-67
2021/12/24 01:56:47;;;;;;;4.77;4.27;;;9.20;99.90;;;;;;5064658;28;20822;-67
2021/12/24 01:59:14;;;;;;;5.43;4.60;;;9.20;99.90;;;;;;5057850;28;20456;-67
2021/12/24 02:01:41;;;;;;;5.00;4.23;;;9.30;99.90;;;;;;5069387;28;20740;-67
2021/12/24 02:04:11;;;;;;;5.03;4.53;;;9.20;99.90;;;;;;5066886;28;20620;-67
2021/12/24 02:06:38;;;;;;;7.40;4.13;;;9.30;99.90;;;;;;5059587;28;20475;-67
2021/12/24 02:09:05;;;;;;;6.90;3.93;;;9.30;99.90;;;;;;5069720;28;20964;-67
2021/12/24 02:11:37;;;;;;;4.53;4.13;;;9.30;99.90;;;;;;5066121;28;20473;-67
2021/12/24 02:14:06;;;;;;;3.73;3.30;;;9.30;99.90;;;;;;5066722;28;20892;-67
2021/12/24 02:16:49;;;;;;;4.30;3.93;;;9.30;99.90;;;;;;5052277;28;20453;-67
2021/12/24 02:30:29;;;;;;;4.53;4.10;;;9.30;99.90;;;;;;5068506;28;20593;-68
2021/12/24 02:32:56;;;;;;;3.95;3.55;;;9.40;99.90;;;;;;5067882;28;20521;-68
2021/12/24 02:35:23;;;;;;;4.80;4.40;;;9.30;99.90;;;;;;5061694;28;20298;-68
2021/12/24 02:37:51;;;;;;;6.00;3.00;;;9.30;99.90;;;;;;5070356;28;20503;-68
2021/12/24 02:40:19;;;;;;;6.83;4.20;;;9.30;99.90;;;;;;5073977;28;20523;-67
2021/12/24 02:42:50;;;;;;;4.83;3.47;;;9.30;99.90;;;;;;5075985;28;20521;-65
2021/12/24 02:45:17;;;;;;;5.20;4.20;;;9.30;99.90;;;;;;5071569;28;20578;-68
2021/12/24 02:47:57;;;;;;;4.77;3.73;;;9.30;99.90;;;;;;5065439;28;20459;-67
2021/12/24 02:55:55;;;;;;;3.53;3.00;;;9.30;99.90;;;;;;5062822;28;20557;-67
2021/12/24 02:58:21;;;;;;;4.80;3.80;;;9.30;99.90;;;;;;5062565;28;20451;-67
2021/12/24 03:00:48;;;;;;;4.90;4.37;;;9.40;99.90;;;;;;5065752;28;20475;-68
2021/12/24 03:03:15;;;;;;;4.50;3.50;;;9.40;99.90;;;;;;5067102;28;20463;-68
2021/12/24 03:05:42;;;;;;;3.80;3.27;;;9.40;99.90;;;;;;5065030;28;20488;-67
2021/12/24 03:08:09;;;;;;;4.77;4.27;;;9.40;99.90;;;;;;5067238;28;20533;-68
2021/12/24 03:10:37;;;;;;;7.67;4.27;;;9.40;99.90;;;;;;5067043;28;20771;-66
2021/12/24 03:13:04;;;;;;;4.23;3.57;;;9.40;99.90;;;;;;5068492;28;20471;-68
2021/12/24 03:15:31;;;;;;;4.30;3.93;;;9.40;99.90;;;;;;5052738;28;20520;-67
2021/12/24 03:17:59;;;;;;;13.30;3.80;;;9.30;99.90;;;;;;5060592;28;20462;-66
2021/12/24 03:20:32;;;;;;;5.53;4.00;;;9.30;99.90;;;;;;5054436;28;20456;-67
2021/12/24 03:23:10;;;;;;;6.70;4.07;;;9.30;99.90;;;;;;5068402;28;20426;-66
2021/12/24 03:25:38;;;;;;;7.60;4.50;;;9.30;99.90;;;;;;5064450;28;20926;-67
2021/12/24 03:28:05;;;;;;;5.23;3.77;;;9.30;99.90;;;;;;5050448;28;20514;-67
2021/12/24 03:30:32;;;;;;;11.47;4.87;;;9.30;99.90;;;;;;5061298;28;20791;-68
2021/12/24 03:32:59;;;;;;;3.93;3.60;;;9.30;99.90;;;;;;5058126;28;20452;-68
2021/12/24 03:35:25;;;;;;;4.50;4.10;;;9.40;99.90;;;;;;5063780;28;20472;-68
2021/12/24 03:37:52;;;;;;;5.80;3.83;;;9.30;99.90;;;;;;5067061;28;20795;-66
2021/12/24 03:40:19;;;;;;;4.07;3.47;;;9.30;99.90;;;;;;5066732;28;20463;-65
2021/12/24 03:42:47;;;;;;;4.90;4.10;;;9.20;99.90;;;;;;5061385;28;20975;-66
2021/12/24 03:45:24;;;;;;;4.87;4.20;;;9.10;99.90;;;;;;5066061;28;20571;-66
2021/12/24 03:47:57;;;;;;;6.25;5.22;;;9.00;99.90;;;;;;5067909;28;20521;-66
2021/12/24 03:50:28;;;;;;;5.25;4.55;;;9.00;99.90;;;;;;5053364;28;20216;-67
2021/12/24 03:54:55;;;;;;;9.20;5.60;;;9.00;99.90;;;;;;5054300;28;20250;-68
2021/12/24 03:55:49;;;;;;;5.60;4.90;;;8.90;99.90;;;;;;5051950;28;20844;-68
2021/12/24 03:58:17;;;;;;;5.50;4.00;;;8.90;99.90;;;;;;5053626;28;20458;-68
2021/12/24 04:00:44;;;;;;;4.83;4.33;;;8.90;99.90;;;;;;5066702;28;20318;-67
2021/12/24 04:03:11;;;;;;;4.93;4.53;;;8.90;99.90;;;;;;5066511;28;21023;-68
2021/12/24 04:05:37;;;;;;;9.60;5.07;;;8.90;99.90;;;;;;5064866;28;20286;-68
2021/12/24 04:08:04;;;;;;;5.13;4.00;;;8.90;99.90;;;;;;5063648;28;20461;-67
2021/12/24 04:10:39;;;;;;;4.20;3.87;;;8.90;99.90;;;;;;5055165;28;20231;-67
2021/12/24 04:13:06;;;;;;;4.90;4.30;;;8.90;99.90;;;;;;5064154;28;20451;-67
2021/12/24 04:15:34;;;;;;;6.80;4.50;;;8.90;99.90;;;;;;5062128;28;20531;-67
2021/12/24 04:18:01;;;;;;;6.87;3.97;;;9.00;99.90;;;;;;5066805;28;21193;-67
2021/12/24 04:25:56;;;;;;;4.32;2.88;;;9.00;99.90;;;;;;5055525;28;20458;-67
2021/12/24 04:28:22;;;;;;;5.33;3.67;;;9.00;99.90;;;;;;5064606;28;20209;-68
2021/12/24 04:30:52;;;;;;;3.67;3.37;;;9.00;99.90;;;;;;5064375;28;20465;-68
2021/12/24 04:33:25;;;;;;;6.60;4.60;;;9.00;99.90;;;;;;5056864;28;20514;-68
2021/12/24 04:36:15;;;;;;;6.93;4.40;;;9.00;99.90;;;;;;5057871;28;20491;-68
2021/12/24 04:39:26;;;;;;;5.07;3.87;;;9.10;99.90;;;;;;5065728;28;20536;-66
2021/12/24 04:53:12;;;;;;;8.50;4.90;;;9.20;99.90;;;;;;5048506;28;20467;-66
2021/12/24 05:01:19;;;;;;;7.28;5.30;;;9.20;99.90;;;;;;5057118;28;20518;-66
2021/12/24 05:03:47;;;;;;;7.43;5.07;;;9.30;99.90;;;;;;5052498;28;20276;-68
2021/12/24 05:06:27;;;;;;;8.97;4.10;;;9.20;99.90;;;;;;5062766;28;21004;-66
2021/12/24 05:08:56;;;;;;;5.67;4.87;;;9.30;99.90;;;;;;5066208;28;20455;-67
2021/12/24 05:11:24;;;;;;;4.90;4.50;;;9.30;99.90;;;;;;5057988;28;20926;-66
2021/12/24 05:13:52;;;;;;;8.33;4.70;;;9.30;99.90;;;;;;5067345;28;20468;-67
2021/12/24 05:16:24;;;;;;;4.57;3.70;;;9.30;99.90;;;;;;5055564;28;20521;-68
2021/12/24 05:21:32;;;;;;;5.63;4.90;;;9.30;99.90;;;;;;5052122;28;20491;-68
2021/12/24 05:21:51;;;;;;;4.57;4.00;;;9.40;99.90;;;;;;5061417;28;20450;-68
2021/12/24 05:24:19;;;;;;;3.90;3.53;;;9.40;99.90;;;;;;5063720;28;20449;-67
2021/12/24 05:26:49;;;;;;;5.90;5.20;;;9.40;99.90;;;;;;5072664;28;20549;-66
2021/12/24 05:29:17;;;;;;;5.20;3.67;;;9.30;99.90;;;;;;5073649;28;20451;-66
2021/12/24 05:31:45;;;;;;;5.00;4.57;;;9.40;99.90;;;;;;5067667;28;20498;-68
2021/12/24 05:34:14;;;;;;;8.53;5.20;;;9.40;99.90;;;;;;5062435;28;20447;-67
2021/12/24 05:36:42;;;;;;;5.57;3.77;;;9.40;99.90;;;;;;5066899;28;20632;-68
2021/12/24 05:39:10;;;;;;;4.87;4.47;;;9.40;99.90;;;;;;5066623;28;21098;-68
2021/12/24 05:41:37;;;;;;;4.33;3.90;;;9.50;99.90;;;;;;5066816;28;20949;-67
2021/12/24 05:44:04;;;;;;;5.70;4.17;;;9.40;99.90;;;;;;5056425;28;20546;-68
2021/12/24 05:46:31;;;;;;;5.77;5.17;;;9.40;99.90;;;;;;5066673;28;20527;-67
2021/12/24 05:48:58;;;;;;;5.67;4.60;;;9.40;99.90;;;;;;5063770;28;20443;-68
2021/12/24 05:51:26;;;;;;;5.63;5.13;;;9.40;99.90;;;;;;5065396;28;20466;-68
2021/12/24 05:53:53;;;;;;;4.13;3.20;;;9.40;99.90;;;;;;5061387;28;20485;-66
2021/12/24 05:56:19;;;;;;;6.03;4.20;;;9.40;99.90;;;;;;5066212;28;20455;-68
2021/12/24 05:58:46;;;;;;;4.17;3.77;;;9.40;99.90;;;;;;5064488;28;20986;-67
2021/12/24 06:01:13;;;;;;;6.33;4.40;;;9.40;99.90;;;;;;5068952;28;20463;-68
2021/12/24 06:03:39;;;;;;;6.10;4.80;;;9.50;99.90;;;;;;5067392;28;20512;-66
2021/12/24 06:06:06;;;;;;;8.50;5.53;;;9.50;99.90;;;;;;5066106;28;20895;-65
2021/12/24 06:08:34;;;;;;;5.50;5.00;;;9.50;99.90;;;;;;5068164;28;20455;-68
2021/12/24 06:11:01;;;;;;;4.90;3.50;;;9.50;99.90;;;;;;5067715;28;20520;-66
2021/12/24 06:13:29;;;;;;;9.87;4.93;;;9.50;99.90;;;;;;5053506;28;20448;-66
2021/12/24 06:15:56;;;;;;;5.07;4.30;;;9.50;99.90;;;;;;5065419;28;20452;-67
2021/12/24 06:18:25;;;;;;;9.77;3.70;;;9.50;99.90;;;;;;5070092;28;20430;-66
2021/12/24 06:20:52;;;;;;;9.90;5.47;;;9.40;99.90;;;;;;5068260;28;20471;-68
2021/12/24 06:23:21;;;;;;;8.30;4.87;;;9.40;99.90;;;;;;5052238;28;20526;-68
2021/12/24 06:25:50;;;;;;;8.80;3.80;;;9.50;99.90;;;;;;5064941;28;20969;-67
2021/12/24 06:28:18;;;;;;;8.13;4.87;;;9.40;99.90;;;;;;5066268;28;20452;-67
2021/12/24 06:30:45;;;;;;;6.60;4.80;;;9.40;99.90;;;;;;5066057;28;20441;-68
2021/12/24 06:33:12;;;;;;;6.30;4.60;;;9.50;99.90;;;;;;5068066;28;20798;-68
2021/12/24 06:35:38;;;;;;;7.13;4.00;;;9.50;99.90;;;;;;5068252;28;20462;-70
2021/12/24 06:38:06;;;;;;;6.03;4.60;;;9.50;99.90;;;;;;5069109;28;20448;-68
2021/12/24 06:40:34;;;;;;;8.33;4.57;;;9.50;99.90;;;;;;5073359;28;20533;-67
2021/12/24 06:43:03;;;;;;;4.73;4.33;;;9.40;99.90;;;;;;5070542;28;20480;-67
2021/12/24 06:45:31;;;;;;;8.13;4.70;;;9.40;99.90;;;;;;5062199;28;20462;-66
2021/12/24 06:48:00;;;;;;;6.30;4.77;;;9.40;99.90;;;;;;5068090;28;20860;-67
2021/12/24 06:50:26;;;;;;;3.90;3.60;;;9.40;99.90;;;;;;5068156;28;20474;-66
2021/12/24 06:52:54;;;;;;;4.63;4.23;;;9.40;99.90;;;;;;5064152;28;20438;-67
2021/12/24 06:55:21;;;;;;;4.23;3.77;;;9.50;99.90;;;;;;5068632;28;20533;-68
2021/12/24 06:57:48;;;;;;;4.97;3.87;;;9.40;99.90;;;;;;5065497;28;20503;-66
2021/12/24 07:00:21;;;;;;;6.57;3.80;;;9.40;99.90;;;;;;5062122;28;20930;-67
2021/12/24 07:02:49;;;;;;;5.07;4.00;;;9.40;99.90;;;;;;5052438;28;20461;-66
2021/12/24 07:05:17;;;;;;;4.43;3.77;;;9.40;99.90;;;;;;5062216;28;20544;-66
2021/12/24 07:07:44;;;;;;;9.90;5.80;;;9.30;99.90;;;;;;5060117;28;20459;-72
2021/12/24 07:10:11;;;;;;;5.70;4.87;;;9.40;99.90;;;;;;5066290;28;20462;-71
2021/12/24 07:12:38;;;;;;;7.93;7.00;;;9.30;99.90;;;;;;5052726;28;20468;-72
2021/12/24 07:15:05;;;;;;;7.70;4.23;;;9.30;99.90;;;;;;5054125;28;20458;-72
2021/12/24 07:17:33;;;;;;;8.37;5.00;;;9.30;99.90;;;;;;5060793;28;20422;-72
2021/12/24 07:20:00;;;;;;;4.40;4.00;;;9.30;99.90;;;;;;5066329;28;20501;-72
2021/12/24 07:22:26;;;;;;;7.90;4.00;;;9.40;99.90;;;;;;5068334;28;20505;-73
2021/12/24 07:24:54;;;;;;;4.03;3.73;;;9.30;99.90;;;;;;5065167;28;20520;-74
2021/12/24 07:27:21;;;;;;;5.67;5.07;;;9.30;99.90;;;;;;5066425;28;20460;-72
2021/12/24 07:29:47;;;;;;;8.33;4.97;;;9.30;99.90;;;;;;5068306;28;20426;-72
2021/12/24 07:32:14;;;;;;;5.80;4.20;;;9.30;99.90;;;;;;5055606;28;20828;-72
2021/12/24 07:34:42;;;;;;;5.23;4.33;;;9.30;99.90;;;;;;5066822;28;20475;-72
2021/12/24 07:37:09;;;;;;;5.93;3.90;;;9.20;99.90;;;;;;5066995;28;20430;-71
2021/12/24 07:39:36;;;;;;;10.37;4.30;;;9.30;99.90;;;;;;5063383;28;20542;-73
2021/12/24 07:42:03;;;;;;;6.00;5.43;;;9.30;99.90;;;;;;5065408;28;20492;-68
2021/12/24 07:44:33;;;;;;;4.27;3.87;;;9.30;99.90;;;;;;5058905;28;20553;-72
2021/12/24 07:47:02;;;;;;;6.00;4.93;;;9.30;99.90;;;;;;5062673;28;20487;-73
2021/12/24 07:49:38;;;;;;;5.60;5.00;;;9.30;99.90;;;;;;5073390;28;20519;-73
2021/12/24 07:52:11;;;;;;;11.37;4.97;;;9.20;99.90;;;;;;5073546;28;20500;-72
2021/12/24 07:54:39;;;;;;;5.27;4.53;;;9.10;99.90;;;;;;5052483;28;20476;-72
2021/12/24 07:57:07;;;;;;;5.40;4.20;;;9.10;99.90;;;;;;5056502;28;20781;-73
2021/12/24 07:59:37;;;;;;;6.70;3.80;;;9.00;99.90;;;;;;5055343;28;20426;-73
2021/12/24 08:02:07;;;;;;;7.30;4.57;;;9.00;99.90;;;;;;5067418;28;20946;-73
2021/12/24 08:04:33;;;;;;;5.90;3.70;;;8.90;99.90;;;;;;5062294;28;20549;-73
2021/12/24 08:07:01;;;;;;;6.50;5.10;;;8.90;99.90;;;;;;5062023;28;20509;-71
2021/12/24 08:09:29;;;;;;;8.80;5.20;;;8.90;99.90;;;;;;5063971;28;20513;-73
2021/12/24 08:11:56;;;;;;;6.10;5.23;;;8.90;99.90;;;;;;5060488;28;20447;-73
2021/12/24 08:14:23;;;;;;;7.80;5.33;;;9.00;99.90;;;;;;5051496;28;20521;-73
2021/12/24 08:16:50;;;;;;;6.67;3.80;;;9.00;99.90;;;;;;5059149;28;20510;-71
2021/12/24 08:19:18;;;;;;;9.83;5.03;;;9.00;99.90;;;;;;5058986;28;20820;-71
2021/12/24 08:21:46;;;;;;;5.63;4.63;;;9.00;99.90;;;;;;5061920;28;20456;-75
2021/12/24 08:24:13;;;;;;;4.77;4.37;;;9.10;99.90;;;;;;5050293;28;20442;-72
2021/12/24 08:26:41;;;;;;;5.10;4.53;;;9.20;99.90;;;;;;5060435;28;20860;-72
2021/12/24 08:29:07;;;;;;;5.57;4.97;;;9.20;99.90;;;;;;5061030;28;20432;-72
2021/12/24 08:31:35;;;;;;;4.23;3.80;;;9.20;99.90;;;;;;5065170;28;20452;-71
2021/12/24 08:34:02;;;;;;;4.60;4.20;;;9.20;99.90;;;;;;5064845;28;20467;-72
2021/12/24 08:36:29;;;;;;;5.17;4.17;;;9.30;99.90;;;;;;5063548;28;20463;-72
2021/12/24 08:38:56;;;;;;;8.23;3.37;;;9.20;99.90;;;;;;5061894;28;20486;-72
2021/12/24 08:41:22;;;;;;;12.83;4.60;;;9.30;99.90;;;;;;5060592;28;20517;-71
2021/12/24 08:43:51;;;;;;;5.30;4.60;;;9.30;99.90;;;;;;5059383;28;20482;-73
2021/12/24 08:46:18;;;;;;;4.80;3.30;;;9.30;99.90;;;;;;5056568;28;20598;-72
2021/12/24 08:48:45;;;;;;;24.37;14.83;;;9.30;99.90;;;;;;5050762;28;20455;-70
2021/12/24 08:51:11;;;;;;;12.73;7.83;;;9.30;99.90;;;;;;5055342;28;20509;-71
2021/12/24 08:53:38;;;;;;;6.83;5.40;;;9.30;99.90;;;;;;5060730;28;20543;-70
2021/12/24 08:56:06;;;;;;;7.47;4.83;;;9.40;99.90;;;;;;5064375;28;20560;-70
2021/12/24 08:58:33;;;;;;;4.50;3.50;;;9.40;99.90;;;;;;5064788;28;20929;-70
2021/12/24 09:01:01;;;;;;;6.13;5.57;;;9.40;99.90;;;;;;5063273;28;20492;-70
2021/12/24 09:03:28;;;;;;;10.93;4.47;;;9.40;99.90;;;;;;5070499;28;20447;-69
2021/12/24 09:05:55;;;;;;;8.30;3.97;;;9.40;99.90;;;;;;5060191;28;20491;-67
2021/12/24 09:08:22;;;;;;;6.20;4.00;;;9.40;99.90;;;;;;5066603;28;20484;-72
2021/12/24 09:10:49;;;;;;;6.27;4.50;;;9.40;99.90;;;;;;5056502;28;20514;-70
2021/12/24 09:13:16;;;;;;;7.27;3.67;;;9.40;99.90;;;;;;5058178;28;20435;-69
2021/12/24 09:15:43;;;;;;;4.03;3.63;;;9.40;99.90;;;;;;5059047;28;20568;-70
2021/12/24 09:18:11;;;;;;;10.33;5.50;;;9.50;99.90;;;;;;5062291;28;20888;-71
2021/12/24 09:20:43;;;;;;;8.53;4.30;;;9.50;99.90;;;;;;5058171;28;20475;-70
2021/12/24 09:23:10;;;;;;;7.50;3.83;;;9.60;99.90;;;;;;5054071;28;20456;-71
2021/12/24 09:25:38;;;;;;;5.40;3.70;;;9.60;99.90;;;;;;5064853;28;20446;-69
2021/12/24 09:28:06;;;;;;;4.27;3.67;;;9.60;99.90;;;;;;5056174;28;20434;-69
2021/12/24 09:30:33;;;;;;;5.07;4.00;;;9.70;99.90;;;;;;5052537;28;20488;-68
2021/12/24 09:33:00;;;;;;;5.90;3.90;;;9.70;99.90;;;;;;5050149;28;20463;-69
2021/12/24 09:35:29;;;;;;;6.30;3.87;;;9.70;99.90;;;;;;5052494;28;20796;-69
2021/12/24 09:37:58;;;;;;;7.83;4.17;;;9.70;99.90;;;;;;5058420;28;20492;-69
2021/12/24 09:40:26;;;;;;;6.37;3.83;;;9.80;99.90;;;;;;5056210;28;20478;-69
2021/12/24 09:42:53;;;;;;;3.93;3.23;;;9.80;99.90;;;;;;5057174;28;20430;-69
2021/12/24 09:45:20;;;;;;;6.50;4.00;;;9.80;99.90;;;;;;5064347;28;20554;-69
2021/12/24 09:47:47;;;;;;;4.77;3.40;;;9.80;99.90;;;;;;5056062;28;20480;-69
2021/12/24 09:50:16;;;;;;;7.37;3.80;;;9.80;99.90;;;;;;5057154;28;20418;-69
2021/12/24 09:52:45;;;;;;;11.83;4.43;;;9.90;99.90;;;;;;5055428;28;20617;-69
2021/12/24 09:55:14;;;;;;;6.23;3.97;;;9.90;99.90;;;;;;5067064;28;20467;-73
2021/12/24 09:57:42;;;;;;;4.40;3.57;;;9.90;99.90;;;;;;5060765;28;20440;-67
2021/12/24 10:00:13;;;;;;;10.43;3.80;;;9.90;99.90;;;;;;5058465;28;20599;-71
2021/12/24 10:02:44;;;;;;;4.73;3.20;;;9.90;99.90;;;;;;5055560;28;20525;-71
2021/12/24 10:05:26;;;;;;;7.03;4.30;;;9.90;99.90;;;;;;5069567;28;20547;-72
2021/12/24 10:07:59;;;;;;;9.03;3.67;;;9.80;99.90;;;;;;5058192;28;20458;-71
2021/12/24 10:10:28;;;;;;;5.50;3.50;;;9.80;99.90;;;;;;5066261;28;20455;-71
2021/12/24 10:12:58;;;;;;;5.67;3.47;;;9.80;99.90;;;;;;5064748;28;20945;-73
2021/12/24 10:15:25;;;;;;;3.93;3.37;;;9.80;99.90;;;;;;5070209;28;20467;-72
2021/12/24 10:17:51;;;;;;;3.97;2.80;;;9.80;99.90;;;;;;5066677;28;20504;-71
2021/12/24 10:20:20;;;;;;;7.63;3.80;;;9.90;99.90;;;;;;5065567;28;20503;-71
2021/12/24 10:22:50;;;;;;;3.93;3.57;;;9.90;99.90;;;;;;5068241;28;20868;-72
2021/12/24 10:25:27;;;;;;;3.70;3.03;;;10.00;99.90;;;;;;5069731;28;20443;-70
2021/12/24 10:27:54;;;;;;;5.27;3.50;;;10.10;99.90;;;;;;5064408;28;20577;-71
2021/12/24 10:30:27;;;;;;;4.27;3.53;;;10.10;99.90;;;;;;5061139;28;20469;-73
2021/12/24 10:32:55;;;;;;;3.10;2.80;;;10.20;99.90;;;;;;5057364;28;20513;-72
2021/12/24 10:35:24;;;;;;;6.27;4.20;;;10.30;99.90;;;;;;5061494;28;20873;-72
2021/12/24 10:38:09;;;;;;;3.97;3.43;;;10.40;99.90;;;;;;5062193;28;20834;-73
2021/12/24 10:40:38;;;;;;;2.67;2.43;;;10.40;99.90;;;;;;5055149;28;20459;-73
2021/12/24 10:43:04;;;;;;;4.70;3.17;;;10.60;99.90;;;;;;5061661;28;20442;-73
2021/12/24 10:45:33;;;;;;;3.70;2.97;;;10.80;99.90;;;;;;5061859;28;20455;-73
2021/12/24 10:48:17;;;;;;;8.63;3.17;;;10.80;99.90;;;;;;5063334;28;20583;-73
2021/12/24 10:51:04;;;;;;;5.90;3.23;;;10.90;99.90;;;;;;5060675;28;20568;-74
2021/12/24 10:53:34;;;;;;;3.53;3.23;;;10.90;99.90;;;;;;5061229;28;20543;-73
2021/12/24 10:56:04;;;;;;;6.37;3.27;;;10.90;99.90;;;;;;5063289;28;20459;-74
2021/12/24 10:58:31;;;;;;;5.67;3.33;;;11.00;99.90;;;;;;5063343;28;20466;-73
2021/12/24 11:01:01;;;;;;;6.10;4.07;;;11.00;99.90;;;;;;5059618;28;20456;-74
2021/12/24 11:03:32;;;;;;;3.60;2.20;;;11.00;99.90;;;;;;5065471;28;20966;-74
2021/12/24 11:06:06;;;;;;;4.70;3.80;;;10.90;99.90;;;;;;5062149;28;20941;-76
2021/12/24 11:08:33;;;;;;;2.93;2.47;;;10.90;99.90;;;;;;5067820;28;20470;-73
2021/12/24 11:11:02;;;;;;;12.37;3.57;;;10.90;99.90;;;;;;5061024;28;21082;-73
2021/12/24 11:13:39;;;;;;;6.37;3.43;;;10.90;99.90;;;;;;5064312;28;20447;-74
2021/12/24 11:16:06;;;;;;;6.80;3.27;;;10.80;99.90;;;;;;5058575;28;20923;-73
2021/12/24 11:18:35;;;;;;;2.10;1.93;;;10.80;99.90;;;;;;5065886;28;20534;-74
2021/12/24 11:21:04;;;;;;;3.50;3.20;;;10.80;99.90;;;;;;5067467;28;20470;-73
2021/12/24 11:23:32;;;;;;;4.07;3.67;;;10.80;99.90;;;;;;5064794;28;20552;-73
2021/12/24 11:26:03;;;;;;;3.90;3.50;;;10.80;99.90;;;;;;5064368;28;21002;-69
2021/12/24 11:28:33;;;;;;;4.70;2.30;;;10.90;99.90;;;;;;5064061;28;21118;-71
2021/12/24 11:31:02;;;;;;;3.10;2.50;;;10.90;99.90;;;;;;5064555;28;20429;-71
2021/12/24 11:33:31;;;;;;;5.17;3.30;;;10.90;99.90;;;;;;5066270;28;20962;-71
2021/12/24 11:36:00;;;;;;;5.70;2.80;;;10.90;99.90;;;;;;5054139;28;20979;-75
2021/12/24 11:38:28;;;;;;;2.70;2.50;;;10.80;99.90;;;;;;5059642;28;20942;-70
2021/12/24 11:41:00;;;;;;;3.33;3.03;;;10.80;99.90;;;;;;5062275;28;20427;-70
2021/12/24 11:43:29;;;;;;;3.13;2.80;;;10.90;99.90;;;;;;5059273;28;20450;-70
2021/12/24 11:45:59;;;;;;;2.87;2.03;;;10.90;99.90;;;;;;5061659;28;20472;-71
2021/12/24 11:48:27;;;;;;;3.83;2.80;;;10.90;99.90;;;;;;5059130;28;20471;-70
2021/12/24 11:50:54;;;;;;;4.40;2.40;;;11.00;99.90;;;;;;5059672;28;20422;-69
2021/12/24 11:53:22;;;;;;;6.40;3.23;;;11.00;99.90;;;;;;5065145;28;20937;-70
2021/12/24 11:55:50;;;;;;;3.10;2.60;;;11.00;99.90;;;;;;5055858;28;20450;-70
2021/12/24 11:58:18;;;;;;;4.57;3.23;;;11.00;99.90;;;;;;5062262;28;20422;-70
2021/12/24 12:00:47;;;;;;;7.17;2.87;;;11.00;99.90;;;;;;5065381;28;20449;-68
2021/12/24 12:03:31;;;;;;;6.03;4.23;;;11.00;99.90;;;;;;5062451;28;20582;-71
2021/12/24 12:05:58;;;;;;;8.43;2.73;;;11.20;99.90;;;;;;5055359;28;20421;-66
2021/12/24 12:08:38;;;;;;;3.37;3.00;;;11.30;99.90;;;;;;5057399;28;21063;-68
2021/12/24 12:11:16;;;;;;;7.33;3.10;;;11.30;99.90;;;;;;5062440;28;20445;-69
2021/12/24 12:13:49;;;;;;;4.83;2.90;;;11.30;99.90;;;;;;5049982;28;20441;-73
2021/12/24 12:16:18;;;;;;;4.53;3.00;;;11.20;99.90;;;;;;5059713;28;20946;-72
2021/12/24 12:18:50;;;;;;;3.57;2.40;;;11.30;99.90;;;;;;5057083;28;21034;-73
2021/12/24 12:21:34;;;;;;;5.83;3.10;;;11.40;99.90;;;;;;5055843;28;20438;-74
2021/12/24 12:26:47;;;;;;;5.43;2.10;;;11.20;99.90;;;;;;5065412;28;20471;-73
2021/12/24 12:29:24;;;;;;;2.93;2.73;;;11.20;99.90;;;;;;5064981;28;20422;-71
2021/12/24 12:31:53;;;;;;;3.37;2.43;;;11.10;99.90;;;;;;5058092;28;20473;-70
2021/12/24 12:34:51;;;;;;;2.50;2.03;;;11.10;99.90;;;;;;5058980;28;20504;-72
2021/12/24 12:37:19;;;;;;;5.00;2.87;;;11.00;99.90;;;;;;5056109;28;20422;-72
2021/12/24 12:39:48;;;;;;;6.80;2.80;;;11.00;99.90;;;;;;5054275;28;20511;-71
2021/12/24 12:42:17;;;;;;;3.97;2.43;;;11.10;99.90;;;;;;5051196;28;20444;-72
2021/12/24 12:44:47;;;;;;;9.30;2.53;;;11.20;99.90;;;;;;5062830;28;20538;-72
2021/12/24 12:47:16;;;;;;;7.77;2.67;;;11.30;99.90;;;;;;5058722;28;20845;-72
2021/12/24 12:49:43;;;;;;;2.37;2.17;;;11.50;99.90;;;;;;5061369;28;20452;-72
2021/12/24 12:52:20;;;;;;;2.60;2.40;;;11.60;99.90;;;;;;5061948;28;20478;-74
2021/12/24 12:54:48;;;;;;;7.60;2.27;;;11.40;99.90;;;;;;5065959;28;20529;-72
2021/12/24 12:57:27;;;;;;;3.67;2.30;;;11.30;99.90;;;;;;5052603;28;20868;-73
2021/12/24 13:00:20;;;;;;;2.40;2.20;;;11.20;99.90;;;;;;5049576;28;20962;-73
2021/12/24 13:03:11;;;;;;;3.23;2.50;;;11.10;99.90;;;;;;5047363;28;20431;-73
2021/12/24 13:05:57;;;;;;;4.67;2.50;;;11.10;99.90;;;;;;5063015;28;20561;-72
2021/12/24 13:08:27;;;;;;;4.87;2.50;;;11.00;99.90;;;;;;5055997;28;20492;-69
2021/12/24 13:10:59;;;;;;;4.53;2.00;;;11.00;99.90;;;;;;5067421;28;20451;-70
2021/12/24 13:13:26;;;;;;;3.03;1.93;;;11.10;99.90;;;;;;5064185;28;20574;-70
2021/12/24 13:15:53;;;;;;;2.10;1.90;;;11.10;99.90;;;;;;5068492;28;20579;-71
2021/12/24 13:18:26;;;;;;;3.43;2.40;;;11.10;99.90;;;;;;5064615;28;20509;-72
2021/12/24 13:23:42;;;;;;;3.10;2.00;;;11.10;99.90;;;;;;5057920;28;20429;-72
2021/12/24 13:26:11;;;;;;;4.93;2.50;;;11.00;99.90;;;;;;5060889;28;20467;-72
2021/12/24 13:28:53;;;;;;;3.10;2.80;;;10.90;99.90;;;;;;5065469;28;20490;-72
2021/12/24 13:31:20;;;;;;;3.37;2.20;;;10.90;99.90;;;;;;5058354;28;20853;-72
2021/12/24 13:33:47;;;;;;;3.50;2.43;;;10.80;99.90;;;;;;5054727;28;20973;-71
2021/12/24 13:36:14;;;;;;;3.03;2.60;;;10.70;99.90;;;;;;5060752;28;20484;-70
2021/12/24 13:38:44;;;;;;;2.57;2.37;;;10.70;99.90;;;;;;5057641;28;20448;-72
2021/12/24 13:41:10;;;;;;;4.87;2.40;;;10.60;99.90;;;;;;5061986;28;20481;-71
2021/12/24 13:43:37;;;;;;;2.93;2.50;;;10.60;99.90;;;;;;5057318;28;20434;-71
2021/12/24 13:46:07;;;;;;;3.43;2.77;;;10.50;99.90;;;;;;5065743;28;20474;-72
2021/12/24 13:48:47;;;;;;;9.67;3.30;;;10.40;99.90;;;;;;5054701;28;20929;-71
2021/12/24 13:56:45;;;;;;;4.90;1.97;;;10.30;99.90;;;;;;5064439;28;20445;-72
2021/12/24 13:59:15;;;;;;;4.50;3.40;;;10.20;99.90;;;;;;5057609;28;20561;-72
2021/12/24 14:01:43;;;;;;;3.10;2.73;;;10.20;99.90;;;;;;5068002;28;20929;-71
2021/12/24 14:04:10;;;;;;;3.33;2.87;;;10.20;99.90;;;;;;5062177;28;20442;-72
2021/12/24 14:06:38;;;;;;;8.73;2.70;;;10.20;99.90;;;;;;5057356;28;20506;-72
2021/12/24 14:09:11;;;;;;;7.80;2.93;;;10.20;99.90;;;;;;5058285;28;20495;-70
2021/12/24 14:11:38;;;;;;;5.70;2.70;;;10.20;99.90;;;;;;5058365;28;20467;-73
2021/12/24 14:14:10;;;;;;;4.10;2.57;;;10.20;99.90;;;;;;5059467;28;20487;-73
2021/12/24 14:16:52;;;;;;;5.70;3.17;;;10.20;99.90;;;;;;5058331;28;20467;-73
2021/12/24 14:19:30;;;;;;;8.90;4.10;;;10.20;99.90;;;;;;5048754;28;20453;-72
2021/12/24 14:22:06;;;;;;;3.43;2.90;;;10.20;99.90;;;;;;5060892;28;20459;-73
2021/12/24 14:24:36;;;;;;;4.87;2.73;;;10.20;99.90;;;;;;5058649;28;20555;-72